sensor_id;sensor_type;location;lat;lon;timestamp;P1;durP1;ratioP1;P2;durP2;ratioP2
46198;SDS011;31928;52.104;10.030;2023-02-15T00:01:32;8.13;;;7.43;;
46198;SDS011;31928;52.104;10.030;2023-02-15T00:03:59;7.28;;;6.68;;
46198;SDS011;31928;52.104;10.030;2023-02-15T00:06:26;7.70;;;7.00;;
46198;SDS011;31928;52.104;10.030;2023-02-15T00:08:53;8.38;;;7.63;;
46198;SDS011;31928;52.104;10.030;2023-02-15T00:11:21;9.55;;;8.57;;
46198;SDS011;31928;52.104;10.030;2023-02-15T00:16:34;9.27;;;8.38;;
46198;SDS011;31928;52.104;10.030;2023-02-15T00:19:02;8.68;;;7.82;;
46198;SDS011;31928;52.104;10.030;2023-02-15T00:21:29;9.18;;;8.38;;
46198;SDS011;31928;52.104;10.030;2023-02-15T00:23:57;9.05;;;8.25;;
46198;SDS011;31928;52.104;10.030;2023-02-15T00:26:24;7.88;;;7.18;;
46198;SDS011;31928;52.104;10.030;2023-02-15T00:28:52;8.07;;;7.25;;
46198;SDS011;31928;52.104;10.030;2023-02-15T00:31:18;8.23;;;7.20;;
46198;SDS011;31928;52.104;10.030;2023-02-15T00:33:45;8.75;;;7.95;;
46198;SDS011;31928;52.104;10.030;2023-02-15T00:38:38;7.53;;;6.72;;
46198;SDS011;31928;52.104;10.030;2023-02-15T00:41:06;8.88;;;7.97;;
46198;SDS011;31928;52.104;10.030;2023-02-15T00:43:34;8.63;;;7.82;;
46198;SDS011;31928;52.104;10.030;2023-02-15T00:46:02;9.48;;;8.65;;
46198;SDS011;31928;52.104;10.030;2023-02-15T00:48:30;9.15;;;8.35;;
46198;SDS011;31928;52.104;10.030;2023-02-15T00:53:25;8.18;;;7.35;;
46198;SDS011;31928;52.104;10.030;2023-02-15T00:55:52;8.60;;;7.80;;
46198;SDS011;31928;52.104;10.030;2023-02-15T00:58:19;8.05;;;7.32;;
46198;SDS011;31928;52.104;10.030;2023-02-15T01:03:14;7.40;;;6.80;;
46198;SDS011;31928;52.104;10.030;2023-02-15T01:05:41;8.32;;;7.63;;
46198;SDS011;31928;52.104;10.030;2023-02-15T01:10:35;7.10;;;6.47;;
46198;SDS011;31928;52.104;10.030;2023-02-15T01:13:02;8.05;;;7.25;;
46198;SDS011;31928;52.104;10.030;2023-02-15T01:15:28;8.55;;;7.78;;
46198;SDS011;31928;52.104;10.030;2023-02-15T01:17:55;8.02;;;7.30;;
46198;SDS011;31928;52.104;10.030;2023-02-15T01:20:23;7.53;;;6.85;;
46198;SDS011;31928;52.104;10.030;2023-02-15T01:22:52;8.77;;;8.00;;
46198;SDS011;31928;52.104;10.030;2023-02-15T01:25:20;8.52;;;7.68;;
46198;SDS011;31928;52.104;10.030;2023-02-15T01:27:48;9.05;;;8.10;;
46198;SDS011;31928;52.104;10.030;2023-02-15T01:30:15;8.25;;;7.55;;
46198;SDS011;31928;52.104;10.030;2023-02-15T01:32:42;8.23;;;7.43;;
46198;SDS011;31928;52.104;10.030;2023-02-15T01:35:09;8.70;;;7.90;;
46198;SDS011;31928;52.104;10.030;2023-02-15T01:37:37;9.40;;;8.50;;
46198;SDS011;31928;52.104;10.030;2023-02-15T01:42:31;7.15;;;6.55;;
46198;SDS011;31928;52.104;10.030;2023-02-15T01:44:58;7.78;;;7.00;;
46198;SDS011;31928;52.104;10.030;2023-02-15T01:50:32;8.35;;;7.65;;
46198;SDS011;31928;52.104;10.030;2023-02-15T01:55:46;9.65;;;8.48;;
46198;SDS011;31928;52.104;10.030;2023-02-15T01:58:16;10.50;;;9.52;;
46198;SDS011;31928;52.104;10.030;2023-02-15T02:00:43;10.27;;;9.15;;
46198;SDS011;31928;52.104;10.030;2023-02-15T02:03:09;9.38;;;8.48;;
46198;SDS011;31928;52.104;10.030;2023-02-15T02:08:04;9.32;;;8.43;;
46198;SDS011;31928;52.104;10.030;2023-02-15T02:12:58;8.52;;;7.68;;
46198;SDS011;31928;52.104;10.030;2023-02-15T02:15:33;7.82;;;7.15;;
46198;SDS011;31928;52.104;10.030;2023-02-15T02:18:18;9.20;;;8.30;;
46198;SDS011;31928;52.104;10.030;2023-02-15T02:20:52;8.35;;;7.65;;
46198;SDS011;31928;52.104;10.030;2023-02-15T02:35:22;8.48;;;7.45;;
46198;SDS011;31928;52.104;10.030;2023-02-15T02:37:54;8.48;;;7.68;;
46198;SDS011;31928;52.104;10.030;2023-02-15T02:40:30;7.63;;;6.87;;
46198;SDS011;31928;52.104;10.030;2023-02-15T02:43:10;8.20;;;7.47;;
46198;SDS011;31928;52.104;10.030;2023-02-15T02:45:50;8.68;;;7.90;;
46198;SDS011;31928;52.104;10.030;2023-02-15T02:48:24;9.80;;;8.80;;
46198;SDS011;31928;52.104;10.030;2023-02-15T02:50:55;10.38;;;9.38;;
46198;SDS011;31928;52.104;10.030;2023-02-15T02:53:21;8.23;;;7.45;;
46198;SDS011;31928;52.104;10.030;2023-02-15T02:59:03;8.75;;;7.97;;
46198;SDS011;31928;52.104;10.030;2023-02-15T03:01:39;9.25;;;8.35;;
46198;SDS011;31928;52.104;10.030;2023-02-15T03:04:15;9.73;;;8.73;;
46198;SDS011;31928;52.104;10.030;2023-02-15T03:06:46;9.20;;;8.25;;
46198;SDS011;31928;52.104;10.030;2023-02-15T03:09:28;9.90;;;8.85;;
46198;SDS011;31928;52.104;10.030;2023-02-15T03:12:00;10.07;;;9.18;;
46198;SDS011;31928;52.104;10.030;2023-02-15T03:14:29;11.00;;;10.00;;
46198;SDS011;31928;52.104;10.030;2023-02-15T03:19:25;9.83;;;8.93;;
46198;SDS011;31928;52.104;10.030;2023-02-15T03:21:56;9.82;;;8.80;;
46198;SDS011;31928;52.104;10.030;2023-02-15T03:24:36;10.75;;;9.65;;
46198;SDS011;31928;52.104;10.030;2023-02-15T03:27:16;9.80;;;8.80;;
46198;SDS011;31928;52.104;10.030;2023-02-15T03:29:47;10.50;;;9.50;;
46198;SDS011;31928;52.104;10.030;2023-02-15T03:32:17;9.05;;;8.02;;
46198;SDS011;31928;52.104;10.030;2023-02-15T03:34:45;10.07;;;9.07;;
46198;SDS011;31928;52.104;10.030;2023-02-15T03:40:07;9.77;;;9.00;;
46198;SDS011;31928;52.104;10.030;2023-02-15T03:43:10;9.98;;;8.93;;
46198;SDS011;31928;52.104;10.030;2023-02-15T03:45:44;9.63;;;8.70;;
46198;SDS011;31928;52.104;10.030;2023-02-15T03:48:24;8.77;;;7.97;;
46198;SDS011;31928;52.104;10.030;2023-02-15T03:51:02;8.60;;;7.80;;
46198;SDS011;31928;52.104;10.030;2023-02-15T03:53:51;9.20;;;8.45;;
46198;SDS011;31928;52.104;10.030;2023-02-15T03:58:47;8.55;;;7.75;;
46198;SDS011;31928;52.104;10.030;2023-02-15T04:04:37;8.90;;;8.02;;
46198;SDS011;31928;52.104;10.030;2023-02-15T04:07:08;9.75;;;8.75;;
46198;SDS011;31928;52.104;10.030;2023-02-15T04:09:35;9.02;;;8.32;;
46198;SDS011;31928;52.104;10.030;2023-02-15T04:12:20;9.13;;;7.75;;
46198;SDS011;31928;52.104;10.030;2023-02-15T04:14:47;9.13;;;8.23;;
46198;SDS011;31928;52.104;10.030;2023-02-15T04:17:32;9.15;;;8.27;;
46198;SDS011;31928;52.104;10.030;2023-02-15T04:19:58;9.00;;;8.10;;
46198;SDS011;31928;52.104;10.030;2023-02-15T04:22:43;8.27;;;7.57;;
46198;SDS011;31928;52.104;10.030;2023-02-15T04:25:29;8.98;;;8.07;;
46198;SDS011;31928;52.104;10.030;2023-02-15T04:27:56;10.18;;;9.18;;
46198;SDS011;31928;52.104;10.030;2023-02-15T04:30:23;9.20;;;8.40;;
46198;SDS011;31928;52.104;10.030;2023-02-15T04:32:51;8.73;;;7.95;;
46198;SDS011;31928;52.104;10.030;2023-02-15T04:35:17;9.25;;;8.35;;
46198;SDS011;31928;52.104;10.030;2023-02-15T04:37:44;8.90;;;8.02;;
46198;SDS011;31928;52.104;10.030;2023-02-15T04:40:11;7.60;;;6.90;;
46198;SDS011;31928;52.104;10.030;2023-02-15T04:42:39;9.77;;;8.98;;
46198;SDS011;31928;52.104;10.030;2023-02-15T04:45:06;8.95;;;8.05;;
46198;SDS011;31928;52.104;10.030;2023-02-15T04:47:33;8.10;;;7.40;;
46198;SDS011;31928;52.104;10.030;2023-02-15T04:52:26;8.90;;;8.20;;
46198;SDS011;31928;52.104;10.030;2023-02-15T04:54:53;9.30;;;8.50;;
46198;SDS011;31928;52.104;10.030;2023-02-15T04:57:19;9.82;;;8.82;;
46198;SDS011;31928;52.104;10.030;2023-02-15T04:59:46;8.80;;;8.10;;
46198;SDS011;31928;52.104;10.030;2023-02-15T05:02:12;9.68;;;8.85;;
46198;SDS011;31928;52.104;10.030;2023-02-15T05:04:39;9.65;;;8.75;;
46198;SDS011;31928;52.104;10.030;2023-02-15T05:07:05;9.55;;;8.75;;
46198;SDS011;31928;52.104;10.030;2023-02-15T05:09:32;8.82;;;7.97;;
46198;SDS011;31928;52.104;10.030;2023-02-15T05:11:58;9.35;;;8.45;;
46198;SDS011;31928;52.104;10.030;2023-02-15T05:14:25;8.60;;;7.85;;
46198;SDS011;31928;52.104;10.030;2023-02-15T05:16:51;7.22;;;6.65;;
46198;SDS011;31928;52.104;10.030;2023-02-15T05:19:20;6.75;;;6.20;;
46198;SDS011;31928;52.104;10.030;2023-02-15T05:21:46;5.75;;;5.25;;
46198;SDS011;31928;52.104;10.030;2023-02-15T05:24:13;6.15;;;5.70;;
46198;SDS011;31928;52.104;10.030;2023-02-15T05:26:58;7.45;;;6.75;;
46198;SDS011;31928;52.104;10.030;2023-02-15T05:29:43;8.30;;;7.45;;
46198;SDS011;31928;52.104;10.030;2023-02-15T05:32:10;7.63;;;6.93;;
46198;SDS011;31928;52.104;10.030;2023-02-15T05:34:39;7.72;;;7.03;;
46198;SDS011;31928;52.104;10.030;2023-02-15T05:37:05;7.72;;;7.05;;
46198;SDS011;31928;52.104;10.030;2023-02-15T05:39:33;8.13;;;7.43;;
46198;SDS011;31928;52.104;10.030;2023-02-15T05:42:00;9.27;;;8.43;;
46198;SDS011;31928;52.104;10.030;2023-02-15T05:44:26;10.27;;;9.27;;
46198;SDS011;31928;52.104;10.030;2023-02-15T05:46:53;10.02;;;9.02;;
46198;SDS011;31928;52.104;10.030;2023-02-15T05:49:19;8.45;;;7.75;;
46198;SDS011;31928;52.104;10.030;2023-02-15T05:51:46;8.40;;;7.60;;
46198;SDS011;31928;52.104;10.030;2023-02-15T05:54:12;8.48;;;7.70;;
46198;SDS011;31928;52.104;10.030;2023-02-15T05:56:39;8.05;;;7.38;;
46198;SDS011;31928;52.104;10.030;2023-02-15T05:59:05;8.73;;;7.93;;
46198;SDS011;31928;52.104;10.030;2023-02-15T06:01:32;8.05;;;7.35;;
46198;SDS011;31928;52.104;10.030;2023-02-15T06:03:58;9.65;;;8.85;;
46198;SDS011;31928;52.104;10.030;2023-02-15T06:06:25;8.13;;;7.38;;
46198;SDS011;31928;52.104;10.030;2023-02-15T06:08:51;9.30;;;8.50;;
46198;SDS011;31928;52.104;10.030;2023-02-15T06:11:18;9.07;;;8.27;;
46198;SDS011;31928;52.104;10.030;2023-02-15T06:13:44;9.73;;;8.90;;
46198;SDS011;31928;52.104;10.030;2023-02-15T06:16:11;9.43;;;8.52;;
46198;SDS011;31928;52.104;10.030;2023-02-15T06:18:37;9.95;;;9.13;;
46198;SDS011;31928;52.104;10.030;2023-02-15T06:21:04;8.98;;;8.18;;
46198;SDS011;31928;52.104;10.030;2023-02-15T06:23:30;8.90;;;8.20;;
46198;SDS011;31928;52.104;10.030;2023-02-15T06:25:57;9.90;;;9.10;;
46198;SDS011;31928;52.104;10.030;2023-02-15T06:28:23;9.35;;;8.55;;
46198;SDS011;31928;52.104;10.030;2023-02-15T06:30:51;9.63;;;8.85;;
46198;SDS011;31928;52.104;10.030;2023-02-15T06:33:18;8.60;;;7.88;;
46198;SDS011;31928;52.104;10.030;2023-02-15T06:35:45;8.50;;;7.70;;
46198;SDS011;31928;52.104;10.030;2023-02-15T06:38:12;8.93;;;8.15;;
46198;SDS011;31928;52.104;10.030;2023-02-15T06:40:39;7.75;;;7.05;;
46198;SDS011;31928;52.104;10.030;2023-02-15T06:43:05;8.73;;;8.02;;
46198;SDS011;31928;52.104;10.030;2023-02-15T06:45:32;8.40;;;7.65;;
46198;SDS011;31928;52.104;10.030;2023-02-15T06:47:58;8.48;;;7.70;;
46198;SDS011;31928;52.104;10.030;2023-02-15T06:50:25;8.77;;;8.02;;
46198;SDS011;31928;52.104;10.030;2023-02-15T06:52:55;8.10;;;7.40;;
46198;SDS011;31928;52.104;10.030;2023-02-15T06:55:23;7.88;;;7.22;;
46198;SDS011;31928;52.104;10.030;2023-02-15T06:57:49;8.68;;;8.02;;
46198;SDS011;31928;52.104;10.030;2023-02-15T07:02:44;8.00;;;7.38;;
46198;SDS011;31928;52.104;10.030;2023-02-15T07:05:10;8.63;;;7.85;;
46198;SDS011;31928;52.104;10.030;2023-02-15T07:07:37;7.93;;;7.22;;
46198;SDS011;31928;52.104;10.030;2023-02-15T07:10:03;10.25;;;9.40;;
46198;SDS011;31928;52.104;10.030;2023-02-15T07:12:30;9.70;;;8.88;;
46198;SDS011;31928;52.104;10.030;2023-02-15T07:15:11;8.82;;;8.13;;
46198;SDS011;31928;52.104;10.030;2023-02-15T07:17:39;8.63;;;7.93;;
46198;SDS011;31928;52.104;10.030;2023-02-15T07:20:10;9.02;;;8.23;;
46198;SDS011;31928;52.104;10.030;2023-02-15T07:22:42;8.38;;;7.68;;
46198;SDS011;31928;52.104;10.030;2023-02-15T07:25:10;9.18;;;8.20;;
46198;SDS011;31928;52.104;10.030;2023-02-15T07:27:37;8.02;;;7.32;;
46198;SDS011;31928;52.104;10.030;2023-02-15T07:30:05;9.43;;;8.57;;
46198;SDS011;31928;52.104;10.030;2023-02-15T07:32:33;8.93;;;8.13;;
46198;SDS011;31928;52.104;10.030;2023-02-15T07:35:00;8.60;;;7.90;;
46198;SDS011;31928;52.104;10.030;2023-02-15T07:37:27;8.38;;;7.60;;
46198;SDS011;31928;52.104;10.030;2023-02-15T07:42:20;7.55;;;6.85;;
46198;SDS011;31928;52.104;10.030;2023-02-15T07:44:48;8.93;;;8.23;;
46198;SDS011;31928;52.104;10.030;2023-02-15T07:47:15;9.30;;;8.45;;
46198;SDS011;31928;52.104;10.030;2023-02-15T07:49:41;8.95;;;8.18;;
46198;SDS011;31928;52.104;10.030;2023-02-15T07:52:08;8.57;;;7.78;;
46198;SDS011;31928;52.104;10.030;2023-02-15T07:54:34;9.32;;;8.52;;
46198;SDS011;31928;52.104;10.030;2023-02-15T07:57:04;7.78;;;7.15;;
46198;SDS011;31928;52.104;10.030;2023-02-15T07:59:30;7.63;;;6.93;;
46198;SDS011;31928;52.104;10.030;2023-02-15T08:01:57;7.22;;;6.63;;
46198;SDS011;31928;52.104;10.030;2023-02-15T08:04:23;8.48;;;7.70;;
46198;SDS011;31928;52.104;10.030;2023-02-15T08:06:52;8.02;;;7.20;;
46198;SDS011;31928;52.104;10.030;2023-02-15T08:09:19;7.45;;;6.75;;
46198;SDS011;31928;52.104;10.030;2023-02-15T08:11:46;6.78;;;6.18;;
46198;SDS011;31928;52.104;10.030;2023-02-15T08:21:37;9.75;;;8.75;;
46198;SDS011;31928;52.104;10.030;2023-02-15T08:24:05;9.02;;;7.88;;
46198;SDS011;31928;52.104;10.030;2023-02-15T08:26:34;8.20;;;7.40;;
46198;SDS011;31928;52.104;10.030;2023-02-15T08:29:01;12.13;;;9.20;;
46198;SDS011;31928;52.104;10.030;2023-02-15T08:31:28;7.93;;;7.07;;
46198;SDS011;31928;52.104;10.030;2023-02-15T08:33:55;7.97;;;7.25;;
46198;SDS011;31928;52.104;10.030;2023-02-15T08:36:25;7.72;;;7.03;;
46198;SDS011;31928;52.104;10.030;2023-02-15T08:38:56;7.70;;;7.03;;
46198;SDS011;31928;52.104;10.030;2023-02-15T08:41:28;7.65;;;6.80;;
46198;SDS011;31928;52.104;10.030;2023-02-15T08:43:58;7.93;;;7.15;;
46198;SDS011;31928;52.104;10.030;2023-02-15T08:46:27;7.13;;;6.53;;
46198;SDS011;31928;52.104;10.030;2023-02-15T08:48:55;7.15;;;6.45;;
46198;SDS011;31928;52.104;10.030;2023-02-15T08:51:23;7.32;;;6.63;;
46198;SDS011;31928;52.104;10.030;2023-02-15T08:53:52;7.40;;;6.65;;
46198;SDS011;31928;52.104;10.030;2023-02-15T08:56:22;7.15;;;6.55;;
46198;SDS011;31928;52.104;10.030;2023-02-15T08:58:50;7.95;;;7.35;;
46198;SDS011;31928;52.104;10.030;2023-02-15T09:01:18;7.13;;;6.63;;
46198;SDS011;31928;52.104;10.030;2023-02-15T09:03:48;7.85;;;7.05;;
46198;SDS011;31928;52.104;10.030;2023-02-15T09:06:16;8.75;;;7.10;;
46198;SDS011;31928;52.104;10.030;2023-02-15T09:11:11;7.00;;;6.38;;
46198;SDS011;31928;52.104;10.030;2023-02-15T09:13:39;7.90;;;7.07;;
46198;SDS011;31928;52.104;10.030;2023-02-15T09:16:07;7.97;;;7.28;;
46198;SDS011;31928;52.104;10.030;2023-02-15T09:18:36;7.63;;;6.90;;
46198;SDS011;31928;52.104;10.030;2023-02-15T09:21:10;8.02;;;7.22;;
46198;SDS011;31928;52.104;10.030;2023-02-15T09:23:42;7.20;;;6.60;;
46198;SDS011;31928;52.104;10.030;2023-02-15T09:26:11;6.78;;;6.18;;
46198;SDS011;31928;52.104;10.030;2023-02-15T09:28:39;7.13;;;6.45;;
46198;SDS011;31928;52.104;10.030;2023-02-15T09:33:37;6.65;;;6.15;;
46198;SDS011;31928;52.104;10.030;2023-02-15T09:36:05;7.00;;;6.40;;
46198;SDS011;31928;52.104;10.030;2023-02-15T09:38:39;7.22;;;6.55;;
46198;SDS011;31928;52.104;10.030;2023-02-15T09:44:11;7.03;;;6.43;;
46198;SDS011;31928;52.104;10.030;2023-02-15T09:58:00;6.75;;;6.18;;
46198;SDS011;31928;52.104;10.030;2023-02-15T21:40:35;10.02;;;9.13;;
46198;SDS011;31928;52.104;10.030;2023-02-15T21:43:01;13.00;;;11.35;;
46198;SDS011;31928;52.104;10.030;2023-02-15T21:45:46;15.48;;;13.25;;
46198;SDS011;31928;52.104;10.030;2023-02-15T21:48:51;15.27;;;13.35;;
46198;SDS011;31928;52.104;10.030;2023-02-15T21:51:18;14.77;;;13.15;;
46198;SDS011;31928;52.104;10.030;2023-02-15T21:54:03;12.38;;;11.18;;
46198;SDS011;31928;52.104;10.030;2023-02-15T21:56:29;16.88;;;13.93;;
46198;SDS011;31928;52.104;10.030;2023-02-15T21:58:56;14.60;;;12.23;;
46198;SDS011;31928;52.104;10.030;2023-02-15T22:01:23;14.85;;;12.45;;
46198;SDS011;31928;52.104;10.030;2023-02-15T22:03:52;12.50;;;11.20;;
46198;SDS011;31928;52.104;10.030;2023-02-15T22:06:21;13.40;;;12.00;;
46198;SDS011;31928;52.104;10.030;2023-02-15T22:08:47;13.60;;;12.13;;
46198;SDS011;31928;52.104;10.030;2023-02-15T22:13:42;11.95;;;10.50;;
46198;SDS011;31928;52.104;10.030;2023-02-15T22:16:16;13.90;;;12.02;;
46198;SDS011;31928;52.104;10.030;2023-02-15T22:18:44;13.95;;;11.68;;
46198;SDS011;31928;52.104;10.030;2023-02-15T22:21:12;14.45;;;11.82;;
46198;SDS011;31928;52.104;10.030;2023-02-15T22:23:41;13.57;;;11.80;;
46198;SDS011;31928;52.104;10.030;2023-02-15T22:26:10;13.70;;;12.25;;
46198;SDS011;31928;52.104;10.030;2023-02-15T22:28:49;13.05;;;11.70;;
46198;SDS011;31928;52.104;10.030;2023-02-15T22:31:17;12.80;;;11.52;;
46198;SDS011;31928;52.104;10.030;2023-02-15T22:33:46;13.45;;;12.07;;
46198;SDS011;31928;52.104;10.030;2023-02-15T22:36:21;15.93;;;13.32;;
46198;SDS011;31928;52.104;10.030;2023-02-15T22:38:53;16.35;;;13.65;;
46198;SDS011;31928;52.104;10.030;2023-02-15T22:41:21;17.25;;;13.35;;
46198;SDS011;31928;52.104;10.030;2023-02-15T22:43:50;15.82;;;14.13;;
46198;SDS011;31928;52.104;10.030;2023-02-15T22:46:19;15.02;;;13.38;;
46198;SDS011;31928;52.104;10.030;2023-02-15T22:48:48;17.88;;;14.93;;
46198;SDS011;31928;52.104;10.030;2023-02-15T22:51:16;15.65;;;13.77;;
46198;SDS011;31928;52.104;10.030;2023-02-15T22:53:45;15.73;;;14.10;;
46198;SDS011;31928;52.104;10.030;2023-02-15T22:56:16;17.13;;;14.63;;
46198;SDS011;31928;52.104;10.030;2023-02-15T22:58:45;15.77;;;13.93;;
46198;SDS011;31928;52.104;10.030;2023-02-15T23:01:33;17.15;;;14.00;;
46198;SDS011;31928;52.104;10.030;2023-02-15T23:04:02;17.67;;;14.27;;
46198;SDS011;31928;52.104;10.030;2023-02-15T23:06:29;15.70;;;13.63;;
46198;SDS011;31928;52.104;10.030;2023-02-15T23:08:58;17.48;;;13.45;;
46198;SDS011;31928;52.104;10.030;2023-02-15T23:11:26;18.00;;;14.93;;
46198;SDS011;31928;52.104;10.030;2023-02-15T23:16:19;13.85;;;12.43;;
46198;SDS011;31928;52.104;10.030;2023-02-15T23:18:46;16.38;;;14.60;;
46198;SDS011;31928;52.104;10.030;2023-02-15T23:21:29;14.82;;;13.25;;
46198;SDS011;31928;52.104;10.030;2023-02-15T23:23:59;17.92;;;13.80;;
46198;SDS011;31928;52.104;10.030;2023-02-15T23:26:44;17.83;;;13.55;;
46198;SDS011;31928;52.104;10.030;2023-02-15T23:29:15;19.48;;;15.50;;
46198;SDS011;31928;52.104;10.030;2023-02-15T23:31:45;16.73;;;13.43;;
46198;SDS011;31928;52.104;10.030;2023-02-15T23:34:14;19.00;;;15.60;;
46198;SDS011;31928;52.104;10.030;2023-02-15T23:36:44;16.75;;;13.93;;
46198;SDS011;31928;52.104;10.030;2023-02-15T23:39:13;19.65;;;15.82;;
46198;SDS011;31928;52.104;10.030;2023-02-15T23:41:59;15.93;;;13.32;;
46198;SDS011;31928;52.104;10.030;2023-02-15T23:44:28;16.15;;;13.50;;
46198;SDS011;31928;52.104;10.030;2023-02-15T23:46:55;20.30;;;14.70;;
46198;SDS011;31928;52.104;10.030;2023-02-15T23:49:23;17.25;;;14.38;;
46198;SDS011;31928;52.104;10.030;2023-02-15T23:54:18;16.75;;;14.52;;
46198;SDS011;31928;52.104;10.030;2023-02-15T23:56:48;17.85;;;15.40;;
46198;SDS011;31928;52.104;10.030;2023-02-15T23:59:18;19.40;;;15.65;;
